createdAt,value
2016-12-08T00:00:19.294Z,922.92
2016-12-08T00:00:47.441Z,922.87
2016-12-08T00:01:15.606Z,922.88
2016-12-08T00:01:43.924Z,922.88
2016-12-08T00:02:11.929Z,922.89
2016-12-08T00:02:40.197Z,922.88
2016-12-08T00:03:08.292Z,922.91
2016-12-08T00:03:36.496Z,922.91
2016-12-08T00:04:04.618Z,922.93
2016-12-08T00:04:32.847Z,922.93
2016-12-08T00:05:01.010Z,922.96
2016-12-08T00:06:12.198Z,922.97
2016-12-08T00:06:40.194Z,922.98
2016-12-08T00:07:08.366Z,922.99
2016-12-08T00:07:36.579Z,922.98
2016-12-08T00:08:04.863Z,922.98
2016-12-08T00:08:33.142Z,922.99
2016-12-08T00:09:01.320Z,923
2016-12-08T00:09:29.513Z,922.95
2016-12-08T00:09:57.736Z,922.98
2016-12-08T00:10:25.965Z,923.01
2016-12-08T00:10:54.044Z,922.98
2016-12-08T00:12:05.232Z,923.04
2016-12-08T00:12:33.527Z,923.04
2016-12-08T00:13:01.602Z,923.01
2016-12-08T00:13:29.916Z,923.04
2016-12-08T00:13:58.108Z,922.97
2016-12-08T00:14:26.095Z,922.99
2016-12-08T00:14:54.371Z,922.95
2016-12-08T00:15:22.277Z,922.99
2016-12-08T00:15:50.576Z,922.97
2016-12-08T00:16:18.882Z,922.96
2016-12-08T00:16:47.048Z,922.93
2016-12-08T00:17:58.048Z,922.9
2016-12-08T00:18:26.251Z,922.9
2016-12-08T00:18:54.333Z,922.92
2016-12-08T00:19:22.460Z,922.87
2016-12-08T00:19:50.652Z,922.88
2016-12-08T00:20:18.739Z,922.88
2016-12-08T00:20:47.012Z,922.9
2016-12-08T00:21:15.108Z,922.88
2016-12-08T00:21:43.312Z,922.91
2016-12-08T00:22:11.531Z,922.94
2016-12-08T00:22:39.696Z,922.93
2016-12-08T00:23:50.887Z,922.93
2016-12-08T00:24:19.086Z,922.94
2016-12-08T00:24:47.350Z,922.93
2016-12-08T00:25:15.672Z,922.99
2016-12-08T00:25:43.867Z,922.95
2016-12-08T00:26:12.141Z,922.93
2016-12-08T00:26:40.418Z,922.97
2016-12-08T00:27:08.522Z,922.98
2016-12-08T00:27:36.736Z,922.95
2016-12-08T00:28:05.055Z,922.94
2016-12-08T00:28:33.222Z,922.96
2016-12-08T00:29:44.411Z,922.91
2016-12-08T00:30:12.700Z,922.89
2016-12-08T00:30:40.869Z,922.87
2016-12-08T00:31:09.004Z,922.9
2016-12-08T00:31:37.015Z,922.85
2016-12-08T00:32:05.095Z,922.83
2016-12-08T00:32:33.091Z,922.81
2016-12-08T00:33:01.279Z,922.84
2016-12-08T00:33:29.497Z,922.78
2016-12-08T00:33:57.627Z,922.77
2016-12-08T00:34:25.806Z,922.81
2016-12-08T00:35:37.087Z,922.78
2016-12-08T00:36:05.114Z,922.76
2016-12-08T00:36:33.125Z,922.76
2016-12-08T00:37:01.349Z,922.76
2016-12-08T00:37:29.353Z,922.78
2016-12-08T00:37:57.621Z,922.78
2016-12-08T00:38:25.729Z,922.74
2016-12-08T00:38:54.013Z,922.73
2016-12-08T00:39:22.044Z,922.71
2016-12-08T00:39:50.268Z,922.72
2016-12-08T00:40:18.336Z,922.74
2016-12-08T00:41:29.444Z,922.69
2016-12-08T00:41:57.657Z,922.65
2016-12-08T00:42:25.918Z,922.68
2016-12-08T00:42:54.046Z,922.64
2016-12-08T00:43:22.334Z,922.64
2016-12-08T00:43:50.505Z,922.6
2016-12-08T00:44:18.688Z,922.62
2016-12-08T00:44:46.783Z,922.63
2016-12-08T00:45:15.084Z,922.64
2016-12-08T00:45:43.396Z,922.62
2016-12-08T00:46:11.472Z,922.67
2016-12-08T00:47:22.672Z,922.69
2016-12-08T00:47:50.966Z,922.67
2016-12-08T00:48:19.134Z,922.66
2016-12-08T00:48:47.392Z,922.65
2016-12-08T00:49:15.682Z,922.62
2016-12-08T00:49:43.855Z,922.63
2016-12-08T00:50:11.851Z,922.62
2016-12-08T00:50:40.148Z,922.6
2016-12-08T00:51:08.451Z,922.59
2016-12-08T00:51:36.675Z,922.58
2016-12-08T00:52:04.748Z,922.57
2016-12-08T00:53:15.942Z,922.55
2016-12-08T00:53:44.146Z,922.56
2016-12-08T00:54:12.321Z,922.55
2016-12-08T00:54:40.361Z,922.53
2016-12-08T00:55:08.646Z,922.54
2016-12-08T00:55:36.822Z,922.55
2016-12-08T00:56:05.006Z,922.57
2016-12-08T00:56:33.098Z,922.53
2016-12-08T00:57:01.314Z,922.56
2016-12-08T00:57:29.536Z,922.54
2016-12-08T00:57:57.608Z,922.56
2016-12-08T00:59:08.623Z,922.57
2016-12-08T00:59:36.730Z,922.57
2016-12-08T01:00:04.802Z,922.57
2016-12-08T01:00:33.118Z,922.56
2016-12-08T01:01:01.307Z,922.58
2016-12-08T01:01:29.487Z,922.55
2016-12-08T01:01:57.761Z,922.54
2016-12-08T01:02:25.761Z,922.53
2016-12-08T01:02:53.966Z,922.57
2016-12-08T01:03:22.282Z,922.56
2016-12-08T01:03:50.358Z,922.6
2016-12-08T01:05:01.457Z,922.57
2016-12-08T01:05:29.563Z,922.59
2016-12-08T01:05:57.820Z,922.57
2016-12-08T01:06:26.045Z,922.56
2016-12-08T01:06:54.234Z,922.55
2016-12-08T01:07:22.321Z,922.56
2016-12-08T01:07:50.593Z,922.57
2016-12-08T01:08:18.718Z,922.59
2016-12-08T01:08:46.933Z,922.55
2016-12-08T01:09:15.069Z,922.61
2016-12-08T01:09:43.233Z,922.61
2016-12-08T01:10:54.232Z,922.62
2016-12-08T01:11:22.427Z,922.66
2016-12-08T01:11:50.687Z,922.68
2016-12-08T01:12:18.814Z,922.66
2016-12-08T01:12:47.094Z,922.65
2016-12-08T01:13:15.270Z,922.68
2016-12-08T01:13:43.449Z,922.71
2016-12-08T01:14:11.637Z,922.7
2016-12-08T01:14:39.935Z,922.71
2016-12-08T01:15:08.153Z,922.71
2016-12-08T01:15:36.408Z,922.71
2016-12-08T01:16:47.691Z,922.71
2016-12-08T01:17:15.980Z,922.7
2016-12-08T01:17:44.245Z,922.72
2016-12-08T01:18:12.561Z,922.7
2016-12-08T01:18:40.756Z,922.75
2016-12-08T01:19:08.930Z,922.75
2016-12-08T01:19:37.130Z,922.79
2016-12-08T01:20:05.227Z,922.82
2016-12-08T01:20:33.440Z,922.8
2016-12-08T01:21:01.758Z,922.82
2016-12-08T01:21:29.836Z,922.84
2016-12-08T01:22:40.931Z,922.84
2016-12-08T01:23:09.040Z,922.85
2016-12-08T01:23:37.302Z,922.88
2016-12-08T01:24:05.609Z,922.87
2016-12-08T01:24:33.641Z,922.87
2016-12-08T01:25:01.818Z,922.85
2016-12-08T01:25:29.910Z,922.85
2016-12-08T01:25:58.193Z,922.87
2016-12-08T01:26:26.406Z,922.84
2016-12-08T01:26:54.724Z,922.87
2016-12-08T01:27:22.922Z,922.87
2016-12-08T01:28:34.111Z,922.86
2016-12-08T01:29:02.222Z,922.86
2016-12-08T01:29:30.388Z,922.91
2016-12-08T01:29:58.608Z,922.86
2016-12-08T01:30:26.703Z,922.87
2016-12-08T01:30:54.877Z,922.87
2016-12-08T01:31:23.051Z,922.9
2016-12-08T01:31:51.328Z,922.86
2016-12-08T01:32:19.442Z,922.86
2016-12-08T01:32:47.572Z,922.87
2016-12-08T01:33:15.830Z,922.87
2016-12-08T01:34:27.015Z,922.81
2016-12-08T01:34:55.118Z,922.85
2016-12-08T01:35:23.285Z,922.83
2016-12-08T01:35:51.317Z,922.83
2016-12-08T01:36:19.321Z,922.83
2016-12-08T01:36:47.588Z,922.85
2016-12-08T01:37:15.678Z,922.85
2016-12-08T01:37:43.960Z,922.83
2016-12-08T01:38:12.162Z,922.82
2016-12-08T01:38:40.108Z,922.81
2016-12-08T01:39:08.272Z,922.81
2016-12-08T01:40:19.271Z,922.83
2016-12-08T01:40:47.467Z,922.83
2016-12-08T01:41:15.641Z,922.82
2016-12-08T01:41:43.947Z,922.82
2016-12-08T01:42:12.224Z,922.87
2016-12-08T01:42:40.394Z,922.87
2016-12-08T01:43:08.480Z,922.88
2016-12-08T01:43:36.664Z,922.91
2016-12-08T01:44:04.965Z,922.91
2016-12-08T01:44:33.282Z,922.91
2016-12-08T01:45:01.355Z,922.93
2016-12-08T01:46:12.544Z,922.92
2016-12-08T01:46:40.839Z,922.89
2016-12-08T01:47:08.914Z,922.92
2016-12-08T01:47:37.131Z,922.89
2016-12-08T01:48:05.140Z,922.91
2016-12-08T01:48:33.407Z,922.91
2016-12-08T01:49:01.498Z,922.9
2016-12-08T01:49:29.607Z,922.91
2016-12-08T01:49:57.715Z,922.95
2016-12-08T01:50:25.936Z,922.91
2016-12-08T01:50:54.187Z,922.97
2016-12-08T01:52:05.469Z,922.94
2016-12-08T01:52:33.669Z,922.93
2016-12-08T01:53:01.929Z,922.91
2016-12-08T01:53:30.055Z,922.95
2016-12-08T01:53:58.059Z,922.93
2016-12-08T01:54:26.326Z,922.99
2016-12-08T01:54:54.503Z,922.91
2016-12-08T01:55:22.596Z,922.91
2016-12-08T01:55:50.704Z,922.91
2016-12-08T01:56:19.022Z,922.88
2016-12-08T01:56:47.281Z,922.84
2016-12-08T01:57:58.463Z,922.85
2016-12-08T01:58:26.659Z,922.82
2016-12-08T01:58:54.917Z,922.82
2016-12-08T01:59:23.042Z,922.79
2016-12-08T01:59:50.948Z,922.78
2016-12-08T02:00:19.123Z,922.81
2016-12-08T02:00:47.116Z,922.78
2016-12-08T02:01:15.303Z,922.8
2016-12-08T02:01:43.605Z,922.78
2016-12-08T02:02:11.913Z,922.78
2016-12-08T02:02:39.987Z,922.78
2016-12-08T02:03:51.080Z,922.79
2016-12-08T02:04:19.370Z,922.75
2016-12-08T02:04:47.444Z,922.76
2016-12-08T02:05:15.480Z,922.79
2016-12-08T02:05:43.668Z,922.77
2016-12-08T02:06:11.751Z,922.72
2016-12-08T02:06:39.932Z,922.72
2016-12-08T02:07:08.211Z,922.72
2016-12-08T02:07:36.324Z,922.73
2016-12-08T02:08:04.356Z,922.71
2016-12-08T02:08:32.520Z,922.72
2016-12-08T02:09:43.709Z,922.7
2016-12-08T02:10:11.913Z,922.68
2016-12-08T02:10:40.082Z,922.66
2016-12-08T02:11:08.215Z,922.64
2016-12-08T02:11:36.120Z,922.69
2016-12-08T02:12:04.387Z,922.71
2016-12-08T02:12:32.663Z,922.69
2016-12-08T02:13:00.846Z,922.7
2016-12-08T02:13:29.053Z,922.72
2016-12-08T02:13:57.273Z,922.7
2016-12-08T02:14:25.441Z,922.73
2016-12-08T02:15:36.539Z,922.72
2016-12-08T02:16:04.647Z,922.7
2016-12-08T02:16:32.721Z,922.69
2016-12-08T02:17:00.852Z,922.67
2016-12-08T02:17:28.950Z,922.66
2016-12-08T02:17:57.210Z,922.64
2016-12-08T02:18:25.394Z,922.65
2016-12-08T02:18:53.673Z,922.58
2016-12-08T02:19:21.970Z,922.62
2016-12-08T02:19:50.193Z,922.61
2016-12-08T02:20:18.451Z,922.57
2016-12-08T02:21:29.567Z,922.59
2016-12-08T02:21:57.832Z,922.57
2016-12-08T02:22:25.998Z,922.61
2016-12-08T02:22:54.316Z,922.62
2016-12-08T02:23:22.501Z,922.62
2016-12-08T02:23:50.674Z,922.58
2016-12-08T02:24:18.760Z,922.61
2016-12-08T02:24:47.036Z,922.61
2016-12-08T02:25:15.243Z,922.6
2016-12-08T02:25:43.483Z,922.61
2016-12-08T02:26:11.551Z,922.61
2016-12-08T02:27:22.743Z,922.61
2016-12-08T02:27:50.942Z,922.6
2016-12-08T02:28:19.205Z,922.58
2016-12-08T02:28:47.338Z,922.57
2016-12-08T02:29:15.529Z,922.55
2016-12-08T02:29:43.607Z,922.54
2016-12-08T02:30:11.797Z,922.55
2016-12-08T02:30:40.072Z,922.54
2016-12-08T02:31:08.284Z,922.54
2016-12-08T02:31:36.504Z,922.52
2016-12-08T02:32:04.670Z,922.51
2016-12-08T02:33:15.767Z,922.52
2016-12-08T02:33:43.965Z,922.5
2016-12-08T02:34:12.147Z,922.48
2016-12-08T02:34:40.363Z,922.48
2016-12-08T02:35:08.440Z,922.48
2016-12-08T02:35:36.618Z,922.44
2016-12-08T02:36:04.884Z,922.4
2016-12-08T02:36:33.067Z,922.42
2016-12-08T02:37:01.364Z,922.41
2016-12-08T02:37:29.583Z,922.43
2016-12-08T02:37:57.836Z,922.38
2016-12-08T02:39:08.925Z,922.43
2016-12-08T02:39:37.211Z,922.4
2016-12-08T02:40:05.282Z,922.41
2016-12-08T02:40:33.408Z,922.44
2016-12-08T02:41:01.691Z,922.39
2016-12-08T02:41:29.864Z,922.41
2016-12-08T02:41:57.947Z,922.4
2016-12-08T02:42:26.037Z,922.41
2016-12-08T02:42:54.252Z,922.35
2016-12-08T02:43:22.569Z,922.36
2016-12-08T02:43:50.635Z,922.39
2016-12-08T02:45:01.821Z,922.34
2016-12-08T02:45:29.925Z,922.31
2016-12-08T02:45:58.100Z,922.29
2016-12-08T02:46:26.323Z,922.29
2016-12-08T02:46:54.617Z,922.32
2016-12-08T02:47:22.603Z,922.33
2016-12-08T02:47:50.694Z,922.3
2016-12-08T02:48:18.785Z,922.32
2016-12-08T02:48:46.990Z,922.32
2016-12-08T02:49:14.933Z,922.3
2016-12-08T02:49:42.910Z,922.32
2016-12-08T02:50:54.009Z,922.28
2016-12-08T02:51:22.296Z,922.3
2016-12-08T02:51:50.457Z,922.31
2016-12-08T02:52:18.684Z,922.28
2016-12-08T02:52:46.878Z,922.27
2016-12-08T02:53:15.130Z,922.26
2016-12-08T02:53:43.217Z,922.24
2016-12-08T02:54:11.492Z,922.25
2016-12-08T02:54:39.608Z,922.27
2016-12-08T02:55:07.839Z,922.23
2016-12-08T02:55:35.992Z,922.27
2016-12-08T02:56:47.164Z,922.23
2016-12-08T02:57:15.473Z,922.22
2016-12-08T02:57:43.640Z,922.23
2016-12-08T02:58:11.860Z,922.21
2016-12-08T02:58:40.143Z,922.17
2016-12-08T02:59:08.317Z,922.21
2016-12-08T02:59:36.585Z,922.16
2016-12-08T03:00:04.863Z,922.16
2016-12-08T03:00:33.072Z,922.16
2016-12-08T03:01:01.384Z,922.14
2016-12-08T03:01:29.544Z,922.14
2016-12-08T03:02:40.638Z,922.13
2016-12-08T03:03:08.932Z,922.11
2016-12-08T03:03:37.197Z,922.11
2016-12-08T03:04:05.506Z,922.08
2016-12-08T03:04:33.695Z,922.1
2016-12-08T03:05:01.669Z,922.09
2016-12-08T03:05:29.853Z,922.06
2016-12-08T03:05:58.036Z,922.07
2016-12-08T03:06:26.154Z,922.05
2016-12-08T03:06:54.375Z,922.04
2016-12-08T03:07:22.453Z,922.04
2016-12-08T03:08:33.639Z,922.05
2016-12-08T03:09:01.852Z,922.03
2016-12-08T03:09:29.927Z,921.99
2016-12-08T03:09:58.060Z,922.02
2016-12-08T03:10:26.160Z,922.01
2016-12-08T03:10:54.334Z,922.01
2016-12-08T03:11:22.607Z,922.01
2016-12-08T03:11:50.788Z,922.03
2016-12-08T03:12:18.901Z,922.02
2016-12-08T03:12:47.210Z,922.02
2016-12-08T03:13:15.273Z,922.01
2016-12-08T03:14:26.273Z,921.99
2016-12-08T03:14:54.191Z,921.99
2016-12-08T03:15:22.353Z,922.01
2016-12-08T03:15:50.575Z,922
2016-12-08T03:16:18.673Z,922.01
2016-12-08T03:16:46.755Z,921.97
2016-12-08T03:17:14.744Z,921.98
2016-12-08T03:17:42.834Z,921.99
2016-12-08T03:18:10.948Z,921.94
2016-12-08T03:18:39.265Z,921.97
2016-12-08T03:19:07.336Z,921.98
2016-12-08T03:20:18.614Z,921.98
2016-12-08T03:20:46.905Z,921.96
2016-12-08T03:21:14.980Z,922.02
2016-12-08T03:21:43.109Z,921.98
2016-12-08T03:22:11.293Z,921.97
2016-12-08T03:22:39.466Z,922.01
2016-12-08T03:23:07.548Z,921.95
2016-12-08T03:23:35.639Z,921.96
2016-12-08T03:24:03.839Z,921.95
2016-12-08T03:24:31.972Z,921.91
2016-12-08T03:25:00.136Z,921.92
2016-12-08T03:26:11.412Z,921.9
2016-12-08T03:26:39.520Z,921.84
2016-12-08T03:27:07.499Z,921.85
2016-12-08T03:27:35.535Z,921.86
2016-12-08T03:28:03.721Z,921.89
2016-12-08T03:28:31.895Z,921.85
2016-12-08T03:29:00.084Z,921.84
2016-12-08T03:29:28.271Z,921.84
2016-12-08T03:29:56.480Z,921.83
2016-12-08T03:30:24.514Z,921.83
2016-12-08T03:30:52.676Z,921.87
2016-12-08T03:32:03.865Z,921.83
2016-12-08T03:32:32.160Z,921.86
2016-12-08T03:33:00.229Z,921.85
2016-12-08T03:33:28.351Z,921.87
2016-12-08T03:33:56.359Z,921.82
2016-12-08T03:34:24.629Z,921.8
2016-12-08T03:34:52.901Z,921.81
2016-12-08T03:35:20.991Z,921.79
2016-12-08T03:35:49.200Z,921.81
2016-12-08T03:36:17.509Z,921.78
2016-12-08T03:36:45.769Z,921.8
2016-12-08T03:37:56.994Z,921.81
2016-12-08T03:38:25.151Z,921.8
2016-12-08T03:38:53.449Z,921.79
2016-12-08T03:39:21.649Z,921.8
2016-12-08T03:39:49.904Z,921.79
2016-12-08T03:40:18.048Z,921.81
2016-12-08T03:40:46.259Z,921.8
2016-12-08T03:41:14.590Z,921.79
2016-12-08T03:41:42.953Z,921.8
2016-12-08T03:42:11.328Z,921.81
2016-12-08T03:42:39.464Z,921.81
2016-12-08T03:43:50.790Z,921.78
2016-12-08T03:44:19.034Z,921.77
2016-12-08T03:44:47.437Z,921.75
2016-12-08T03:45:15.696Z,921.78
2016-12-08T03:45:44.018Z,921.77
2016-12-08T03:46:12.274Z,921.77
2016-12-08T03:46:40.493Z,921.72
2016-12-08T03:47:08.629Z,921.77
2016-12-08T03:47:36.788Z,921.74
2016-12-08T03:48:05.151Z,921.73
2016-12-08T03:48:33.454Z,921.7
2016-12-08T03:49:44.782Z,921.76
2016-12-08T03:50:13.218Z,921.73
2016-12-08T03:50:41.338Z,921.74
2016-12-08T03:51:09.410Z,921.72
2016-12-08T03:51:37.655Z,921.74
2016-12-08T03:52:05.871Z,921.74
2016-12-08T03:52:34.091Z,921.74
2016-12-08T03:53:02.409Z,921.71
2016-12-08T03:53:30.660Z,921.72
2016-12-08T03:53:58.829Z,921.72
2016-12-08T03:54:27.043Z,921.73
2016-12-08T03:55:38.269Z,921.73
2016-12-08T03:56:06.417Z,921.73
2016-12-08T03:56:34.626Z,921.75
2016-12-08T03:57:02.894Z,921.69
2016-12-08T03:57:31.030Z,921.69
2016-12-08T03:57:59.250Z,921.67
2016-12-08T03:58:27.566Z,921.72
2016-12-08T03:58:55.791Z,921.68
2016-12-08T03:59:23.854Z,921.73
2016-12-08T03:59:52.122Z,921.7
2016-12-08T04:00:20.242Z,921.72
2016-12-08T04:01:31.569Z,921.74
2016-12-08T04:01:59.896Z,921.72
2016-12-08T04:02:28.192Z,921.7
2016-12-08T04:02:56.264Z,921.74
2016-12-08T04:03:24.311Z,921.7
2016-12-08T04:03:52.622Z,921.69
2016-12-08T04:04:20.753Z,921.7
2016-12-08T04:04:48.989Z,921.7
2016-12-08T04:05:17.239Z,921.68
2016-12-08T04:05:45.504Z,921.68
2016-12-08T04:06:13.710Z,921.67
2016-12-08T04:07:24.665Z,921.63
2016-12-08T04:07:52.902Z,921.6
2016-12-08T04:08:21.116Z,921.6
2016-12-08T04:08:49.197Z,921.57
2016-12-08T04:09:17.345Z,921.58
2016-12-08T04:09:45.562Z,921.56
2016-12-08T04:10:13.786Z,921.55
2016-12-08T04:10:41.924Z,921.55
2016-12-08T04:11:10.264Z,921.52
2016-12-08T04:11:38.522Z,921.52
2016-12-08T04:12:06.732Z,921.54
2016-12-08T04:13:18.054Z,921.51
2016-12-08T04:13:46.295Z,921.52
2016-12-08T04:14:14.404Z,921.49
2016-12-08T04:14:42.671Z,921.45
2016-12-08T04:15:10.722Z,921.47
2016-12-08T04:15:39.027Z,921.44
2016-12-08T04:16:07.252Z,921.43
2016-12-08T04:16:35.484Z,921.45
2016-12-08T04:17:03.638Z,921.41
2016-12-08T04:17:31.997Z,921.4
2016-12-08T04:18:00.200Z,921.41
2016-12-08T04:19:11.330Z,921.39
2016-12-08T04:19:39.386Z,921.37
2016-12-08T04:20:07.593Z,921.35
2016-12-08T04:20:35.854Z,921.38
2016-12-08T04:21:03.989Z,921.39
2016-12-08T04:21:32.112Z,921.35
2016-12-08T04:22:00.240Z,921.33
2016-12-08T04:22:28.567Z,921.36
2016-12-08T04:22:56.709Z,921.35
2016-12-08T04:23:25.065Z,921.35
2016-12-08T04:23:53.182Z,921.37
2016-12-08T04:25:04.315Z,921.39
2016-12-08T04:25:32.655Z,921.37
2016-12-08T04:26:00.862Z,921.41
2016-12-08T04:26:29.035Z,921.35
2016-12-08T04:26:57.358Z,921.35
2016-12-08T04:27:25.669Z,921.37
2016-12-08T04:27:53.891Z,921.35
2016-12-08T04:28:22.029Z,921.32
2016-12-08T04:28:50.191Z,921.34
2016-12-08T04:29:18.362Z,921.31
2016-12-08T04:29:46.480Z,921.31
2016-12-08T04:30:57.706Z,921.32
2016-12-08T04:31:25.947Z,921.3
2016-12-08T04:31:54.251Z,921.31
2016-12-08T04:32:22.607Z,921.29
2016-12-08T04:32:50.840Z,921.3
2016-12-08T04:33:19.155Z,921.28
2016-12-08T04:33:47.377Z,921.31
2016-12-08T04:34:15.510Z,921.26
2016-12-08T04:34:43.757Z,921.28
2016-12-08T04:35:12.116Z,921.24
2016-12-08T04:35:40.326Z,921.29
2016-12-08T04:36:51.560Z,921.3
2016-12-08T04:37:19.890Z,921.25
2016-12-08T04:37:48.187Z,921.24
2016-12-08T04:38:16.453Z,921.24
2016-12-08T04:38:44.776Z,921.24
2016-12-08T04:39:13.086Z,921.21
2016-12-08T04:39:41.218Z,921.24
2016-12-08T04:40:09.542Z,921.25
2016-12-08T04:40:37.694Z,921.25
2016-12-08T04:41:05.961Z,921.21
2016-12-08T04:41:34.268Z,921.22
2016-12-08T04:42:45.398Z,921.23
2016-12-08T04:43:13.550Z,921.24
2016-12-08T04:43:41.764Z,921.24
2016-12-08T04:44:10.028Z,921.27
2016-12-08T04:44:38.075Z,921.26
2016-12-08T04:45:06.381Z,921.28
2016-12-08T04:45:34.609Z,921.3
2016-12-08T04:46:02.847Z,921.31
2016-12-08T04:46:31.194Z,921.27
2016-12-08T04:46:59.554Z,921.3
2016-12-08T04:47:27.858Z,921.28
2016-12-08T04:48:39.182Z,921.29
2016-12-08T04:49:07.515Z,921.29
2016-12-08T04:49:35.815Z,921.28
2016-12-08T04:50:04.166Z,921.27
2016-12-08T04:50:32.305Z,921.29
2016-12-08T04:51:00.432Z,921.28
2016-12-08T04:51:28.470Z,921.26
2016-12-08T04:51:56.699Z,921.25
2016-12-08T04:52:24.854Z,921.24
2016-12-08T04:52:53.208Z,921.23
2016-12-08T04:53:21.420Z,921.24
2016-12-08T04:54:32.739Z,921.23
2016-12-08T04:55:01.070Z,921.2
2016-12-08T04:55:29.277Z,921.22
2016-12-08T04:55:57.536Z,921.19
2016-12-08T04:56:25.860Z,921.2
2016-12-08T04:56:54.079Z,921.2
2016-12-08T04:57:22.304Z,921.21
2016-12-08T04:57:50.533Z,921.22
2016-12-08T04:58:18.688Z,921.22
2016-12-08T04:58:47.044Z,921.24
2016-12-08T04:59:15.250Z,921.23
2016-12-08T05:00:26.576Z,921.2
2016-12-08T05:00:54.819Z,921.24
2016-12-08T05:01:23.123Z,921.23
2016-12-08T05:01:51.382Z,921.22
2016-12-08T05:02:19.522Z,921.24
2016-12-08T05:02:47.833Z,921.22
2016-12-08T05:03:15.873Z,921.22
2016-12-08T05:03:43.915Z,921.2
2016-12-08T05:04:12.072Z,921.24
2016-12-08T05:04:40.332Z,921.25
2016-12-08T05:05:08.450Z,921.18
2016-12-08T05:06:19.763Z,921.23
2016-12-08T05:06:48.004Z,921.23
2016-12-08T05:07:16.303Z,921.24
2016-12-08T05:07:44.384Z,921.2
2016-12-08T05:08:12.634Z,921.22
2016-12-08T05:08:40.858Z,921.23
2016-12-08T05:09:09.021Z,921.27
2016-12-08T05:09:37.074Z,921.28
2016-12-08T05:10:05.419Z,921.31
2016-12-08T05:10:33.682Z,921.29
2016-12-08T05:11:01.809Z,921.31
2016-12-08T05:12:13.069Z,921.29
2016-12-08T05:12:41.214Z,921.28
2016-12-08T05:13:09.426Z,921.31
2016-12-08T05:13:37.596Z,921.31
2016-12-08T05:14:05.752Z,921.3
2016-12-08T05:14:34.052Z,921.35
2016-12-08T05:15:02.211Z,921.34
2016-12-08T05:15:30.268Z,921.37
2016-12-08T05:15:58.609Z,921.41
2016-12-08T05:16:26.965Z,921.38
2016-12-08T05:16:55.188Z,921.38
2016-12-08T05:18:06.541Z,921.41
2016-12-08T05:18:34.879Z,921.44
2016-12-08T05:19:03.084Z,921.43
2016-12-08T05:19:31.441Z,921.41
2016-12-08T05:19:59.687Z,921.42
2016-12-08T05:20:27.985Z,921.41
2016-12-08T05:20:56.146Z,921.41
2016-12-08T05:21:24.388Z,921.42
2016-12-08T05:21:52.737Z,921.43
2016-12-08T05:22:20.995Z,921.41
2016-12-08T05:22:49.310Z,921.4
2016-12-08T05:24:00.572Z,921.45
2016-12-08T05:24:28.910Z,921.41
2016-12-08T05:24:57.023Z,921.44
2016-12-08T05:25:25.193Z,921.42
2016-12-08T05:25:53.446Z,921.45
2016-12-08T05:26:21.571Z,921.46
2016-12-08T05:26:49.728Z,921.43
2016-12-08T05:27:17.795Z,921.45
2016-12-08T05:27:46.050Z,921.47
2016-12-08T05:28:14.219Z,921.46
2016-12-08T05:28:42.253Z,921.43
2016-12-08T05:29:53.600Z,921.47
2016-12-08T05:30:21.841Z,921.46
2016-12-08T05:30:50.140Z,921.48
2016-12-08T05:31:18.405Z,921.44
2016-12-08T05:31:46.560Z,921.46
2016-12-08T05:32:14.782Z,921.43
2016-12-08T05:32:42.940Z,921.42
2016-12-08T05:33:11.277Z,921.45
2016-12-08T05:33:39.535Z,921.41
2016-12-08T05:34:07.795Z,921.4
2016-12-08T05:34:35.827Z,921.38
2016-12-08T05:35:47.080Z,921.42
2016-12-08T05:36:15.229Z,921.4
2016-12-08T05:36:43.441Z,921.4
2016-12-08T05:37:11.611Z,921.45
2016-12-08T05:37:39.768Z,921.43
2016-12-08T05:38:08.093Z,921.39
2016-12-08T05:38:36.448Z,921.46
2016-12-08T05:39:04.604Z,921.44
2016-12-08T05:39:32.675Z,921.45
2016-12-08T05:40:00.944Z,921.45
2016-12-08T05:40:29.081Z,921.48
2016-12-08T05:41:40.263Z,921.46
2016-12-08T05:42:08.419Z,921.46
2016-12-08T05:42:36.654Z,921.47
2016-12-08T05:43:04.936Z,921.47
2016-12-08T05:43:33.202Z,921.49
2016-12-08T05:44:01.346Z,921.49
2016-12-08T05:44:29.624Z,921.48
2016-12-08T05:44:57.696Z,921.49
2016-12-08T05:45:25.965Z,921.49
2016-12-08T05:45:54.147Z,921.48
2016-12-08T05:46:22.378Z,921.46
2016-12-08T05:47:33.745Z,921.5
2016-12-08T05:48:01.999Z,921.48
2016-12-08T05:48:30.228Z,921.45
2016-12-08T05:48:58.505Z,921.48
2016-12-08T05:49:26.771Z,921.46
2016-12-08T05:49:55.006Z,921.46
2016-12-08T05:50:23.381Z,921.44
2016-12-08T05:50:51.454Z,921.46
2016-12-08T05:51:19.721Z,921.47
2016-12-08T05:51:48.091Z,921.43
2016-12-08T05:52:16.418Z,921.42
2016-12-08T05:53:27.698Z,921.43
2016-12-08T05:53:55.955Z,921.36
2016-12-08T05:54:24.185Z,921.39
2016-12-08T05:54:52.556Z,921.42
2016-12-08T05:55:20.909Z,921.38
2016-12-08T05:55:49.241Z,921.35
2016-12-08T05:56:17.512Z,921.37
2016-12-08T05:56:45.487Z,921.36
2016-12-08T05:57:13.669Z,921.36
2016-12-08T05:57:41.851Z,921.33
2016-12-08T05:58:09.991Z,921.35
2016-12-08T05:59:21.080Z,921.35
2016-12-08T05:59:49.238Z,921.34
2016-12-08T06:00:17.565Z,921.35
2016-12-08T06:00:45.842Z,921.37
2016-12-08T06:01:14.108Z,921.34
2016-12-08T06:01:42.243Z,921.35
2016-12-08T06:02:10.610Z,921.32
2016-12-08T06:02:38.675Z,921.35
2016-12-08T06:03:07.037Z,921.35
2016-12-08T06:03:35.226Z,921.35
2016-12-08T06:04:03.457Z,921.35
2016-12-08T06:05:14.644Z,921.28
2016-12-08T06:05:42.930Z,921.31
2016-12-08T06:06:11.161Z,921.26
2016-12-08T06:06:39.438Z,921.31
2016-12-08T06:07:07.613Z,921.28
2016-12-08T06:07:35.940Z,921.26
2016-12-08T06:08:04.309Z,921.28
2016-12-08T06:08:32.388Z,921.27
2016-12-08T06:09:00.462Z,921.25
2016-12-08T06:09:28.646Z,921.28
2016-12-08T06:09:56.974Z,921.28
2016-12-08T06:11:08.252Z,921.26
2016-12-08T06:11:36.597Z,921.25
2016-12-08T06:12:04.636Z,921.28
2016-12-08T06:12:33.006Z,921.27
2016-12-08T06:13:01.369Z,921.27
2016-12-08T06:13:29.508Z,921.28
2016-12-08T06:13:57.784Z,921.26
2016-12-08T06:14:26.050Z,921.26
2016-12-08T06:14:54.319Z,921.23
2016-12-08T06:15:22.600Z,921.24
2016-12-08T06:15:50.833Z,921.23
2016-12-08T06:17:02.104Z,921.26
2016-12-08T06:17:30.498Z,921.24
2016-12-08T06:17:58.820Z,921.25
2016-12-08T06:18:26.980Z,921.21
2016-12-08T06:18:55.239Z,921.24
2016-12-08T06:19:23.555Z,921.24
2016-12-08T06:19:51.831Z,921.21
2016-12-08T06:20:20.083Z,921.2
2016-12-08T06:20:48.342Z,921.24
2016-12-08T06:21:16.598Z,921.25
2016-12-08T06:21:44.818Z,921.24
2016-12-08T06:22:56.089Z,921.22
2016-12-08T06:23:24.438Z,921.23
2016-12-08T06:23:52.576Z,921.25
2016-12-08T06:24:20.825Z,921.22
2016-12-08T06:24:49.078Z,921.21
2016-12-08T06:25:17.398Z,921.26
2016-12-08T06:25:45.754Z,921.27
2016-12-08T06:26:13.905Z,921.25
2016-12-08T06:26:42.165Z,921.29
2016-12-08T06:27:10.335Z,921.29
2016-12-08T06:27:38.649Z,921.28
2016-12-08T06:28:49.920Z,921.32
2016-12-08T06:29:18.172Z,921.27
2016-12-08T06:29:46.207Z,921.24
2016-12-08T06:30:14.547Z,921.24
2016-12-08T06:30:42.805Z,921.24
2016-12-08T06:31:11.035Z,921.22
2016-12-08T06:31:39.206Z,921.21
2016-12-08T06:32:07.451Z,921.18
2016-12-08T06:32:35.800Z,921.19
2016-12-08T06:33:04.062Z,921.2
2016-12-08T06:33:32.193Z,921.19
2016-12-08T06:34:43.464Z,921.19
2016-12-08T06:35:11.720Z,921.17
2016-12-08T06:35:39.949Z,921.18
2016-12-08T06:36:08.109Z,921.23
2016-12-08T06:36:36.462Z,921.23
2016-12-08T06:37:04.775Z,921.21
2016-12-08T06:37:33.132Z,921.21
2016-12-08T06:38:01.374Z,921.22
2016-12-08T06:38:29.657Z,921.2
2016-12-08T06:38:57.916Z,921.22
2016-12-08T06:39:26.136Z,921.21
2016-12-08T06:40:37.501Z,921.19
2016-12-08T06:41:05.666Z,921.2
2016-12-08T06:41:33.895Z,921.18